createdAt,value
2018-08-20T00:00:48.102Z,95894.98
2018-08-20T00:03:22.636Z,95894.78
2018-08-20T00:05:57.496Z,95890.05
2018-08-20T00:08:42.517Z,95889.41
2018-08-20T00:11:20.065Z,95887.87
2018-08-20T00:13:56.663Z,95893.16
2018-08-20T00:16:31.482Z,95894.47
2018-08-20T00:19:06.380Z,95890.91
2018-08-20T00:21:44.444Z,95894.35
2018-08-20T00:24:19.523Z,95893.75
2018-08-20T00:26:54.541Z,95892.66
2018-08-20T00:29:30.104Z,95891.34
2018-08-20T00:32:05.332Z,95889.94
2018-08-20T00:34:42.449Z,95895.63
2018-08-20T00:37:17.085Z,95889.78
2018-08-20T00:39:51.824Z,95892.91
2018-08-20T00:42:26.393Z,95898.38
2018-08-20T00:45:00.844Z,95892.14
2018-08-20T00:47:35.613Z,95896.67
2018-08-20T00:50:10.623Z,95894.83
2018-08-20T00:52:45.100Z,95897.98
2018-08-20T00:55:20.321Z,95911.19
2018-08-20T00:57:55.860Z,95904.45
2018-08-20T01:00:30.281Z,95904.12
2018-08-20T01:03:05.176Z,95902.84
2018-08-20T01:05:39.605Z,95903.47
2018-08-20T01:08:14.284Z,95906.34
2018-08-20T01:10:49.849Z,95903.98
2018-08-20T01:13:24.768Z,95909.78
2018-08-20T01:15:59.376Z,95911.00
2018-08-20T01:18:34.457Z,95909.50
2018-08-20T01:21:08.840Z,95916.52
2018-08-20T01:23:44.378Z,95913.49
2018-08-20T01:26:19.337Z,95922.45
2018-08-20T01:28:53.837Z,95916.85
2018-08-20T01:31:28.368Z,95917.66
2018-08-20T01:34:02.960Z,95919.16
2018-08-20T01:36:37.412Z,95919.39
2018-08-20T01:39:11.944Z,95924.02
2018-08-20T01:41:46.241Z,95921.89
2018-08-20T01:44:20.693Z,95923.11
2018-08-20T01:46:55.747Z,95927.77
2018-08-20T01:49:30.016Z,95925.94
2018-08-20T01:52:05.621Z,95928.34
2018-08-20T01:54:40.465Z,95928.58
2018-08-20T01:57:14.900Z,95924.44
2018-08-20T01:59:49.436Z,95929.43
2018-08-20T02:02:24.712Z,95928.39
2018-08-20T02:04:59.773Z,95921.84
2018-08-20T02:07:34.471Z,95915.53
2018-08-20T02:10:08.960Z,95919.02
2018-08-20T02:12:43.660Z,95919.01
2018-08-20T02:15:18.087Z,95918.45
2018-08-20T02:17:52.838Z,95918.62
2018-08-20T02:20:27.432Z,95922.97
2018-08-20T02:23:02.843Z,95923.43
2018-08-20T02:25:37.227Z,95922.34
2018-08-20T02:28:12.413Z,95913.78
2018-08-20T02:30:46.960Z,95920.33
2018-08-20T02:33:21.401Z,95919.48
2018-08-20T02:35:55.876Z,95918.91
2018-08-20T02:38:30.650Z,95916.61
2018-08-20T02:41:05.560Z,95912.59
2018-08-20T02:43:40.369Z,95915.19
2018-08-20T02:46:14.751Z,95916.61
2018-08-20T02:48:50.584Z,95913.92
2018-08-20T02:51:24.988Z,95910.48
2018-08-20T02:54:00.013Z,95909.35
2018-08-20T02:56:34.880Z,95909.06
2018-08-20T02:59:09.275Z,95919.72
2018-08-20T03:01:43.712Z,95912.74
2018-08-20T03:04:18.186Z,95912.66
2018-08-20T03:06:53.496Z,95916.52
2018-08-20T03:09:28.547Z,95917.84
2018-08-20T03:12:02.816Z,95915.86
2018-08-20T03:14:37.413Z,95909.78
2018-08-20T03:17:12.412Z,95912.32
2018-08-20T03:19:47.309Z,95908.37
2018-08-20T03:22:22.157Z,95914.72
2018-08-20T03:24:56.514Z,95917.41
2018-08-20T03:27:31.493Z,95913.44
2018-08-20T03:30:06.934Z,95909.48
2018-08-20T03:32:41.608Z,95912.34
2018-08-20T03:35:16.444Z,95906.78
2018-08-20T03:37:50.908Z,95907.38
2018-08-20T03:40:25.380Z,95909.19
2018-08-20T03:43:00.053Z,95908.90
2018-08-20T03:45:34.728Z,95910.82
2018-08-20T03:48:09.692Z,95918.59
2018-08-20T03:50:44.040Z,95919.80
2018-08-20T03:53:18.727Z,95928.28
2018-08-20T03:55:53.181Z,95926.70
2018-08-20T03:58:27.737Z,95925.16
2018-08-20T04:01:02.789Z,95918.97
2018-08-20T04:03:37.426Z,95924.53
2018-08-20T04:06:11.979Z,95926.98
2018-08-20T04:08:46.436Z,95934.44
2018-08-20T04:11:20.984Z,95932.89
2018-08-20T04:13:55.488Z,95923.17
2018-08-20T04:16:29.935Z,95924.49
2018-08-20T04:19:07.115Z,95929.05
2018-08-20T04:21:41.517Z,95925.09
2018-08-20T04:24:15.810Z,95925.98
2018-08-20T04:26:51.311Z,95927.07
2018-08-20T04:29:25.613Z,95927.70
2018-08-20T04:32:00.613Z,95935.09
2018-08-20T04:34:35.492Z,95930.45
2018-08-20T04:37:10.820Z,95935.49
2018-08-20T04:39:45.416Z,95935.95
2018-08-20T04:42:20.284Z,95938.19
2018-08-20T04:44:55.410Z,95943.23
2018-08-20T04:47:29.913Z,95949.83
2018-08-20T04:50:06.390Z,95944.78
2018-08-20T04:52:41.552Z,95944.93
2018-08-20T04:55:16.147Z,95942.75
2018-08-20T04:57:51.257Z,95938.03
2018-08-20T05:00:25.845Z,95939.03
2018-08-20T05:03:00.660Z,95947.08
2018-08-20T05:05:35.166Z,95947.59
2018-08-20T05:08:09.772Z,95949.41
2018-08-20T05:10:44.637Z,95948.60
2018-08-20T05:13:19.193Z,95945.84
2018-08-20T05:15:53.732Z,95946.65
2018-08-20T05:18:28.728Z,95946.61
2018-08-20T05:21:03.452Z,95952.94
2018-08-20T05:23:37.976Z,95945.30
2018-08-20T05:29:28.676Z,95951.86
2018-08-20T05:32:05.453Z,95949.22
2018-08-20T05:34:40.216Z,95948.32
2018-08-20T05:37:14.890Z,95952.90
2018-08-20T05:39:49.313Z,95948.06
2018-08-20T05:42:23.764Z,95956.50
2018-08-20T05:44:58.685Z,95959.09
2018-08-20T05:47:33.176Z,95957.58
2018-08-20T05:50:08.300Z,95962.00
2018-08-20T05:52:47.390Z,95971.91
2018-08-20T05:55:24.208Z,95968.97
2018-08-20T05:57:58.700Z,95970.53
2018-08-20T06:00:33.204Z,95976.03
2018-08-20T06:03:07.619Z,95978.16
2018-08-20T06:05:42.469Z,95973.86
2018-08-20T06:08:17.088Z,95976.38
2018-08-20T06:10:51.783Z,95975.86
2018-08-20T06:13:26.529Z,95972.38
2018-08-20T06:16:03.104Z,95974.95
2018-08-20T06:18:37.841Z,95974.23
2018-08-20T06:21:12.884Z,95971.19
2018-08-20T06:23:47.959Z,95978.92
2018-08-20T06:26:22.679Z,95979.81
2018-08-20T06:28:57.790Z,95974.28
2018-08-20T06:31:32.456Z,95978.59
2018-08-20T06:34:07.500Z,95983.59
2018-08-20T06:36:42.455Z,95973.94
2018-08-20T06:39:18.004Z,95976.45
2018-08-20T06:41:52.482Z,95975.48
2018-08-20T06:44:26.825Z,95978.37
2018-08-20T06:47:02.060Z,95984.61
2018-08-20T06:49:37.077Z,95974.38
2018-08-20T06:52:12.161Z,95972.71
2018-08-20T06:54:46.829Z,95977.30
2018-08-20T06:57:21.928Z,95979.59
2018-08-20T06:59:56.424Z,95970.16
2018-08-20T07:02:31.289Z,95971.21
2018-08-20T07:05:06.217Z,95974.39
2018-08-20T07:07:41.347Z,95972.91
2018-08-20T07:10:15.758Z,95974.84
2018-08-20T07:12:50.787Z,95969.14
2018-08-20T07:15:25.414Z,95967.23
2018-08-20T07:18:00.819Z,95964.55
2018-08-20T07:20:35.512Z,95977.47
2018-08-20T07:23:14.442Z,95978.75
2018-08-20T07:25:50.329Z,95977.36
2018-08-20T07:28:30.481Z,95979.42
2018-08-20T07:31:04.949Z,95982.16
2018-08-20T07:33:39.981Z,95981.13
2018-08-20T07:36:14.573Z,95980.38
2018-08-20T07:38:50.684Z,95982.73
2018-08-20T07:41:25.895Z,95978.33
2018-08-20T07:44:00.616Z,95977.05
2018-08-20T07:46:35.366Z,95981.64
2018-08-20T07:49:15.205Z,95985.28
2018-08-20T07:51:50.855Z,95982.77
2018-08-20T07:54:25.944Z,95978.80
2018-08-20T07:57:01.117Z,95987.64
2018-08-20T07:59:35.532Z,95987.36
2018-08-20T08:02:10.020Z,95986.34
2018-08-20T08:04:47.096Z,95987.73
2018-08-20T08:07:23.920Z,95980.30
2018-08-20T08:09:59.232Z,95985.42
2018-08-20T08:12:33.699Z,95985.44
2018-08-20T08:15:10.925Z,95982.48
2018-08-20T08:17:46.807Z,95981.44
2018-08-20T08:20:21.378Z,95981.28
2018-08-20T08:22:56.236Z,95976.56
2018-08-20T08:25:31.026Z,95979.00
2018-08-20T08:28:05.956Z,95975.55
2018-08-20T08:30:41.640Z,95974.80
2018-08-20T08:33:16.522Z,95969.23
2018-08-20T08:35:51.996Z,95968.49
2018-08-20T08:38:26.349Z,95969.31
2018-08-20T08:41:01.102Z,95975.18
2018-08-20T08:43:35.648Z,95970.91
2018-08-20T08:46:10.978Z,95976.20
2018-08-20T08:48:45.931Z,95972.92
2018-08-20T08:51:21.522Z,95974.50
2018-08-20T08:53:56.282Z,95972.01
2018-08-20T08:56:36.365Z,95971.55
2018-08-20T08:59:11.097Z,95967.86
2018-08-20T09:01:46.111Z,95966.55
2018-08-20T09:04:20.667Z,95969.00
2018-08-20T09:06:55.123Z,95963.78
2018-08-20T09:09:29.508Z,95958.30
2018-08-20T09:12:03.940Z,95959.41
2018-08-20T09:14:40.888Z,95959.78
2018-08-20T09:17:15.608Z,95962.09
2018-08-20T09:19:50.629Z,95959.05
2018-08-20T09:22:25.525Z,95955.47
2018-08-20T09:25:00.252Z,95956.26
2018-08-20T09:27:35.302Z,95952.11
2018-08-20T09:30:16.918Z,95948.27
2018-08-20T09:32:52.051Z,95956.73
2018-08-20T09:35:26.962Z,95948.16
2018-08-20T09:38:01.508Z,95947.19
2018-08-20T09:40:36.732Z,95946.07
2018-08-20T09:43:11.252Z,95948.23
2018-08-20T09:45:46.051Z,95941.30
2018-08-20T09:48:20.745Z,95937.20
2018-08-20T09:50:55.475Z,95941.31
2018-08-20T09:53:31.041Z,95941.89
2018-08-20T09:56:05.878Z,95943.69
2018-08-20T09:58:40.433Z,95942.84
2018-08-20T10:01:15.180Z,95936.50
2018-08-20T10:03:49.702Z,95935.84
2018-08-20T10:06:24.674Z,95934.30
2018-08-20T10:08:59.200Z,95935.41
2018-08-20T10:11:33.837Z,95932.83
2018-08-20T10:14:08.292Z,95933.70
2018-08-20T10:16:42.972Z,95932.53
2018-08-20T10:19:17.840Z,95931.62
2018-08-20T10:21:52.712Z,95932.13
2018-08-20T10:24:27.438Z,95936.20
2018-08-20T10:27:02.180Z,95922.72
2018-08-20T10:29:36.605Z,95923.98
2018-08-20T10:32:11.541Z,95929.13
2018-08-20T10:34:46.588Z,95926.75
2018-08-20T10:37:21.347Z,95918.94
2018-08-20T10:39:57.529Z,95926.62
2018-08-20T10:42:32.492Z,95930.36
2018-08-20T10:45:16.643Z,95929.02
2018-08-20T10:47:51.320Z,95926.04
2018-08-20T10:50:25.909Z,95926.26
2018-08-20T10:53:01.334Z,95928.48
2018-08-20T10:55:36.308Z,95919.09
2018-08-20T10:58:12.271Z,95920.75
2018-08-20T11:00:46.944Z,95914.58
2018-08-20T11:03:21.802Z,95910.23
2018-08-20T11:05:57.015Z,95911.99
2018-08-20T11:08:32.928Z,95912.38
2018-08-20T11:11:08.104Z,95910.48
2018-08-20T11:13:43.001Z,95909.06
2018-08-20T11:16:17.338Z,95913.84
2018-08-20T11:18:51.946Z,95904.20
2018-08-20T11:21:37.580Z,95903.80
2018-08-20T11:24:12.258Z,95895.13
2018-08-20T11:26:46.844Z,95895.05
2018-08-20T11:29:21.335Z,95898.08
2018-08-20T11:31:56.235Z,95891.98
2018-08-20T11:34:31.487Z,95890.14
2018-08-20T11:37:06.604Z,95889.05
2018-08-20T11:39:41.380Z,95886.45
2018-08-20T11:42:16.044Z,95888.13
2018-08-20T11:44:50.468Z,95887.23
2018-08-20T11:47:24.852Z,95879.98
2018-08-20T11:50:00.736Z,95876.47
2018-08-20T11:52:35.163Z,95870.43
2018-08-20T11:55:09.756Z,95871.69
2018-08-20T11:57:44.402Z,95870.42
2018-08-20T12:00:19.468Z,95873.17
2018-08-20T12:02:54.380Z,95868.33
2018-08-20T12:05:29.447Z,95861.92
2018-08-20T12:08:04.351Z,95855.44
2018-08-20T12:10:39.279Z,95860.06
2018-08-20T12:13:14.359Z,95858.06
2018-08-20T12:15:48.852Z,95857.58
2018-08-20T12:18:23.663Z,95848.51
2018-08-20T12:20:58.008Z,95847.91
2018-08-20T12:23:32.760Z,95844.27
2018-08-20T12:26:07.608Z,95843.60
2018-08-20T12:28:42.089Z,95846.04
2018-08-20T12:31:16.413Z,95855.15
2018-08-20T12:33:51.148Z,95850.00
2018-08-20T12:36:25.932Z,95839.36
2018-08-20T12:39:00.620Z,95846.84
2018-08-20T12:41:35.583Z,95834.97
2018-08-20T12:44:10.032Z,95837.34
2018-08-20T12:46:44.908Z,95831.41
2018-08-20T12:49:19.231Z,95831.08
2018-08-20T12:51:54.600Z,95829.51
2018-08-20T12:54:29.692Z,95830.76
2018-08-20T12:57:04.971Z,95830.96
2018-08-20T12:59:39.733Z,95831.60
2018-08-20T13:02:14.233Z,95821.65
2018-08-20T13:04:48.786Z,95812.78
2018-08-20T13:07:23.721Z,95816.30
2018-08-20T13:09:58.512Z,95805.63
2018-08-20T13:12:33.096Z,95809.05
2018-08-20T13:15:07.572Z,95806.97
2018-08-20T13:17:41.932Z,95807.83
2018-08-20T13:23:20.713Z,95799.39
2018-08-20T13:25:55.415Z,95792.56
2018-08-20T13:28:30.748Z,95794.74
2018-08-20T13:31:05.176Z,95798.23
2018-08-20T13:33:39.583Z,95790.74
2018-08-20T13:36:14.419Z,95791.45
2018-08-20T13:38:48.929Z,95785.09
2018-08-20T13:41:23.689Z,95783.02
2018-08-20T13:43:58.201Z,95779.83
2018-08-20T13:46:32.855Z,95775.67
2018-08-20T13:49:07.716Z,95778.25
2018-08-20T13:51:42.230Z,95771.25
2018-08-20T13:54:16.672Z,95771.37
2018-08-20T13:56:51.309Z,95768.06
2018-08-20T13:59:25.620Z,95768.05
2018-08-20T14:02:01.015Z,95769.27
2018-08-20T14:04:36.544Z,95767.93
2018-08-20T14:07:10.946Z,95771.50
2018-08-20T14:09:46.001Z,95769.20
2018-08-20T14:12:20.660Z,95766.78
2018-08-20T14:14:55.637Z,95760.22
2018-08-20T14:17:30.122Z,95757.06
2018-08-20T14:20:08.364Z,95763.27
2018-08-20T14:22:44.008Z,95758.86
2018-08-20T14:25:18.829Z,95765.47
2018-08-20T14:27:53.860Z,95748.88
2018-08-20T14:30:28.458Z,95757.91
2018-08-20T14:33:02.966Z,95750.85
2018-08-20T14:35:37.488Z,95758.95
2018-08-20T14:38:12.119Z,95748.41
2018-08-20T14:40:46.835Z,95750.88
2018-08-20T14:43:21.720Z,95747.45
2018-08-20T14:46:02.350Z,95745.19
2018-08-20T14:48:36.981Z,95747.11
2018-08-20T14:51:11.344Z,95748.25
2018-08-20T14:53:45.852Z,95743.75
2018-08-20T14:56:20.825Z,95738.19
2018-08-20T14:58:55.824Z,95741.47
2018-08-20T15:01:30.695Z,95733.63
2018-08-20T15:04:05.199Z,95735.31
2018-08-20T15:06:55.772Z,95731.67
2018-08-20T15:09:30.980Z,95735.23
2018-08-20T15:12:06.474Z,95731.25
2018-08-20T15:14:41.552Z,95734.27
2018-08-20T15:17:17.052Z,95731.83
2018-08-20T15:19:51.704Z,95727.84
2018-08-20T15:22:26.504Z,95728.91
2018-08-20T15:25:01.237Z,95724.27
2018-08-20T15:27:35.728Z,95726.66
2018-08-20T15:30:10.701Z,95713.92
2018-08-20T15:32:45.765Z,95719.58
2018-08-20T15:35:21.840Z,95714.18
2018-08-20T15:37:56.298Z,95707.14
2018-08-20T15:40:31.023Z,95703.92
2018-08-20T15:43:05.340Z,95706.06
2018-08-20T15:45:40.085Z,95705.88
2018-08-20T15:48:14.979Z,95710.53
2018-08-20T15:50:49.986Z,95711.67
2018-08-20T15:53:24.733Z,95714.26
2018-08-20T15:55:59.082Z,95704.33
2018-08-20T15:58:33.629Z,95711.13
2018-08-20T16:01:08.268Z,95705.20
2018-08-20T16:03:42.778Z,95707.46
2018-08-20T16:06:17.457Z,95700.28
2018-08-20T16:08:51.809Z,95700.92
2018-08-20T16:11:26.240Z,95696.84
2018-08-20T16:14:00.616Z,95693.59
2018-08-20T16:16:35.352Z,95692.91
2018-08-20T16:19:10.414Z,95695.95
2018-08-20T16:21:44.967Z,95691.83
2018-08-20T16:24:19.454Z,95681.28
2018-08-20T16:26:54.107Z,95687.61
2018-08-20T16:29:28.628Z,95681.59
2018-08-20T16:32:03.752Z,95677.31
2018-08-20T16:34:38.295Z,95684.69
2018-08-20T16:37:13.393Z,95678.52
2018-08-20T16:39:48.584Z,95688.03
2018-08-20T16:42:22.896Z,95684.55
2018-08-20T16:44:57.425Z,95683.28
2018-08-20T16:47:32.253Z,95689.80
2018-08-20T16:50:08.791Z,95689.80
2018-08-20T16:52:43.461Z,95687.39
2018-08-20T16:55:17.838Z,95681.94
2018-08-20T16:57:52.683Z,95684.02
2018-08-20T17:00:27.263Z,95686.52
2018-08-20T17:03:01.608Z,95680.59
2018-08-20T17:05:41.565Z,95687.34
2018-08-20T17:08:25.020Z,95684.09
2018-08-20T17:11:00.096Z,95683.77
2018-08-20T17:13:34.956Z,95686.94
2018-08-20T17:16:10.481Z,95680.05
2018-08-20T17:18:45.252Z,95686.03
2018-08-20T17:21:19.596Z,95686.94
2018-08-20T17:23:54.161Z,95687.84
2018-08-20T17:26:28.933Z,95684.93
2018-08-20T17:29:08.892Z,95686.02
2018-08-20T17:31:44.156Z,95690.88
2018-08-20T17:34:18.502Z,95689.71
2018-08-20T17:36:53.800Z,95696.56
2018-08-20T17:39:28.165Z,95697.31
2018-08-20T17:42:02.786Z,95698.80
2018-08-20T17:44:37.446Z,95702.36
2018-08-20T17:47:16.325Z,95702.41
2018-08-20T17:49:51.660Z,95709.27
2018-08-20T17:52:33.100Z,95710.73
2018-08-20T17:55:07.793Z,95711.69
2018-08-20T17:57:42.773Z,95716.39
2018-08-20T18:00:22.994Z,95713.85
2018-08-20T18:02:57.379Z,95713.95
2018-08-20T18:05:31.784Z,95717.81
2018-08-20T18:08:06.584Z,95718.98
2018-08-20T18:10:41.357Z,95720.13
2018-08-20T18:13:30.077Z,95723.17
2018-08-20T18:16:06.942Z,95726.72
2018-08-20T18:18:43.732Z,95727.92
2018-08-20T18:21:18.410Z,95730.66
2018-08-20T18:23:52.836Z,95729.37
2018-08-20T18:26:32.436Z,95735.05
2018-08-20T18:29:09.342Z,95732.70
2018-08-20T18:31:43.795Z,95739.98
2018-08-20T18:34:18.827Z,95742.97
2018-08-20T18:36:53.893Z,95743.60
2018-08-20T18:39:28.869Z,95738.54
2018-08-20T18:42:10.630Z,95747.66
2018-08-20T18:44:47.163Z,95751.98
2018-08-20T18:47:21.483Z,95762.91
2018-08-20T18:49:57.167Z,95762.69
2018-08-20T18:52:32.776Z,95766.70
2018-08-20T18:55:07.217Z,95768.02
2018-08-20T18:57:41.535Z,95775.20
2018-08-20T19:00:16.352Z,95772.81
2018-08-20T19:02:54.356Z,95778.96
2018-08-20T19:05:33.047Z,95781.07
2018-08-20T19:08:11.696Z,95784.53
2018-08-20T19:10:47.973Z,95782.69
2018-08-20T19:13:22.397Z,95789.61
2018-08-20T19:15:57.107Z,95789.31
2018-08-20T19:18:36.088Z,95794.90
2018-08-20T19:21:15.730Z,95789.85
2018-08-20T19:23:50.597Z,95800.73
2018-08-20T19:26:25.434Z,95801.23
2018-08-20T19:29:28.325Z,95792.46
2018-08-20T19:32:02.837Z,95795.88
2018-08-20T19:34:37.876Z,95802.22
2018-08-20T19:37:12.938Z,95803.28
2018-08-20T19:39:47.869Z,95801.66
2018-08-20T19:42:28.060Z,95797.70
2018-08-20T19:45:03.719Z,95802.17
2018-08-20T19:47:37.996Z,95804.03
2018-08-20T19:50:13.507Z,95801.31
2018-08-20T19:52:48.101Z,95802.03
2018-08-20T19:55:22.440Z,95808.91
2018-08-20T19:57:57.178Z,95815.22
2018-08-20T20:00:32.114Z,95817.58
2018-08-20T20:03:06.546Z,95815.65
2018-08-20T20:05:41.063Z,95813.98
2018-08-20T20:08:16.037Z,95817.39
2018-08-20T20:10:50.515Z,95819.45
2018-08-20T20:13:24.949Z,95820.19
2018-08-20T20:16:01.204Z,95821.97
2018-08-20T20:18:35.908Z,95825.75
2018-08-20T20:21:10.716Z,95825.38
2018-08-20T20:23:45.151Z,95825.34
2018-08-20T20:26:19.870Z,95822.42
2018-08-20T20:28:54.568Z,95830.84
2018-08-20T20:31:28.993Z,95825.25
2018-08-20T20:34:03.397Z,95837.09
2018-08-20T20:36:38.172Z,95836.25
2018-08-20T20:39:13.229Z,95840.22
2018-08-20T20:41:47.644Z,95841.23
2018-08-20T20:44:22.083Z,95844.61
2018-08-20T20:46:56.986Z,95850.14
2018-08-20T20:49:31.751Z,95846.37
2018-08-20T20:52:06.990Z,95848.15
2018-08-20T20:54:41.344Z,95852.30
2018-08-20T20:57:16.354Z,95845.07
2018-08-20T20:59:50.708Z,95853.85
2018-08-20T21:02:25.327Z,95857.25
2018-08-20T21:05:04.965Z,95855.59
2018-08-20T21:07:39.861Z,95857.34
2018-08-20T21:10:14.449Z,95865.78
2018-08-20T21:12:49.472Z,95867.58
2018-08-20T21:15:24.243Z,95873.09
2018-08-20T21:17:58.696Z,95873.04
2018-08-20T21:20:33.416Z,95876.93
2018-08-20T21:23:08.353Z,95875.83
2018-08-20T21:25:43.127Z,95871.73
2018-08-20T21:28:17.604Z,95876.45
2018-08-20T21:30:52.157Z,95873.73
2018-08-20T21:33:27.168Z,95876.56
2018-08-20T21:36:02.202Z,95875.95
2018-08-20T21:38:36.716Z,95883.27
2018-08-20T21:41:11.169Z,95880.94
2018-08-20T21:43:47.023Z,95879.67
2018-08-20T21:46:21.794Z,95883.58
2018-08-20T21:48:56.723Z,95884.50
2018-08-20T21:51:36.481Z,95883.36
2018-08-20T21:54:10.986Z,95888.48
2018-08-20T21:56:52.185Z,95892.34
2018-08-20T21:59:26.848Z,95892.45
2018-08-20T22:02:01.432Z,95882.91
2018-08-20T22:04:35.964Z,95888.96
2018-08-20T22:07:10.504Z,95893.59
2018-08-20T22:09:44.848Z,95896.09
2018-08-20T22:12:19.524Z,95896.89
2018-08-20T22:14:54.360Z,95899.44
2018-08-20T22:17:30.668Z,95900.16
2018-08-20T22:20:07.020Z,95895.98
2018-08-20T22:22:41.690Z,95900.09
2018-08-20T22:25:16.984Z,95901.09
2018-08-20T22:27:55.830Z,95895.41
2018-08-20T22:30:30.836Z,95902.73
2018-08-20T22:33:05.693Z,95895.57
2018-08-20T22:35:40.031Z,95891.73
2018-08-20T22:38:15.141Z,95896.66
2018-08-20T22:40:49.775Z,95896.55
2018-08-20T22:43:24.455Z,95898.66
2018-08-20T22:45:59.057Z,95901.47
2018-08-20T22:48:34.738Z,95897.98
2018-08-20T22:51:14.609Z,95899.74
2018-08-20T22:53:51.541Z,95901.26
2018-08-20T22:56:31.574Z,95901.42
2018-08-20T22:59:07.284Z,95904.53
2018-08-20T23:01:41.571Z,95900.72
2018-08-20T23:04:16.486Z,95902.20
2018-08-20T23:06:50.821Z,95902.91
2018-08-20T23:09:28.988Z,95907.30
2018-08-20T23:12:03.573Z,95899.33
2018-08-20T23:14:38.128Z,95908.73
2018-08-20T23:17:12.894Z,95911.89
2018-08-20T23:19:48.776Z,95907.31
2018-08-20T23:22:23.444Z,95904.96
2018-08-20T23:24:58.744Z,95910.70
2018-08-20T23:27:39.073Z,95905.77
2018-08-20T23:30:14.851Z,95915.90
2018-08-20T23:32:49.976Z,95906.11
2018-08-20T23:35:24.461Z,95913.84
2018-08-20T23:37:59.037Z,95911.56
2018-08-20T23:40:33.954Z,95919.14
2018-08-20T23:43:08.376Z,95917.25
2018-08-20T23:45:43.544Z,95915.05
2018-08-20T23:48:18.056Z,95912.02
2018-08-20T23:50:57.456Z,95920.05
2018-08-20T23:53:31.749Z,95912.00
2018-08-20T23:56:06.176Z,95908.05
2018-08-20T23:58:40.840Z,95913.14
